sensor_id;sensor_type;location;lat;lon;timestamp;pressure;altitude;pressure_sealevel;temperature;humidity
3960;BME280;1994;48.640;8.894;2023-07-20T00:01:26;96088.44;;;20.30;52.46
3960;BME280;1994;48.640;8.894;2023-07-20T00:03:52;96080.06;;;20.28;52.64
3960;BME280;1994;48.640;8.894;2023-07-20T00:06:24;96079.78;;;20.16;53.09
3960;BME280;1994;48.640;8.894;2023-07-20T00:08:51;96080.47;;;20.08;53.24
3960;BME280;1994;48.640;8.894;2023-07-20T00:11:17;96082.69;;;20.01;52.86
3960;BME280;1994;48.640;8.894;2023-07-20T00:13:43;96081.31;;;19.90;52.82
3960;BME280;1994;48.640;8.894;2023-07-20T00:16:09;96087.66;;;19.89;53.04
3960;BME280;1994;48.640;8.894;2023-07-20T00:18:34;96089.22;;;19.90;53.00
3960;BME280;1994;48.640;8.894;2023-07-20T00:21:00;96084.16;;;19.93;52.92
3960;BME280;1994;48.640;8.894;2023-07-20T00:23:27;96079.69;;;19.94;52.84
3960;BME280;1994;48.640;8.894;2023-07-20T00:25:53;96087.66;;;19.89;52.69
3960;BME280;1994;48.640;8.894;2023-07-20T00:28:19;96077.72;;;19.86;52.75
3960;BME280;1994;48.640;8.894;2023-07-20T00:30:45;96077.06;;;19.80;53.08
3960;BME280;1994;48.640;8.894;2023-07-20T00:33:11;96088.41;;;19.76;53.45
3960;BME280;1994;48.640;8.894;2023-07-20T00:35:38;96086.47;;;19.68;53.70
3960;BME280;1994;48.640;8.894;2023-07-20T00:38:05;96073.44;;;19.63;53.65
3960;BME280;1994;48.640;8.894;2023-07-20T00:40:37;96079.84;;;19.57;54.08
3960;BME280;1994;48.640;8.894;2023-07-20T00:43:03;96074.22;;;19.50;54.22
3960;BME280;1994;48.640;8.894;2023-07-20T00:45:31;96075.84;;;19.46;54.24
3960;BME280;1994;48.640;8.894;2023-07-20T00:47:57;96077.56;;;19.37;54.62
3960;BME280;1994;48.640;8.894;2023-07-20T00:50:24;96080.47;;;19.35;54.87
3960;BME280;1994;48.640;8.894;2023-07-20T00:52:49;96073.28;;;19.27;55.01
3960;BME280;1994;48.640;8.894;2023-07-20T00:55:15;96080.97;;;19.24;55.25
3960;BME280;1994;48.640;8.894;2023-07-20T00:57:41;96080.22;;;19.18;55.35
3960;BME280;1994;48.640;8.894;2023-07-20T01:00:08;96084.78;;;19.13;55.35
3960;BME280;1994;48.640;8.894;2023-07-20T01:02:34;96081.66;;;19.11;55.29
3960;BME280;1994;48.640;8.894;2023-07-20T01:05:00;96084.78;;;19.13;55.39
3960;BME280;1994;48.640;8.894;2023-07-20T01:07:46;96077.00;;;19.08;55.57
3960;BME280;1994;48.640;8.894;2023-07-20T01:10:42;96080.25;;;19.00;55.66
3960;BME280;1994;48.640;8.894;2023-07-20T01:13:10;96080.25;;;19.00;55.69
3960;BME280;1994;48.640;8.894;2023-07-20T01:15:37;96081.41;;;18.94;55.75
3960;BME280;1994;48.640;8.894;2023-07-20T01:18:03;96079.38;;;18.91;55.88
3960;BME280;1994;48.640;8.894;2023-07-20T01:20:32;96079.44;;;18.86;56.08
3960;BME280;1994;48.640;8.894;2023-07-20T01:26:01;96082.13;;;18.81;56.04
3960;BME280;1994;48.640;8.894;2023-07-20T01:31:27;96077.84;;;18.71;56.38
3960;BME280;1994;48.640;8.894;2023-07-20T01:34:00;96075.69;;;18.73;56.67
3960;BME280;1994;48.640;8.894;2023-07-20T01:36:30;96073.63;;;18.70;56.75
3960;BME280;1994;48.640;8.894;2023-07-20T01:38:57;96070.22;;;18.70;56.53
3960;BME280;1994;48.640;8.894;2023-07-20T01:41:23;96081.00;;;18.68;56.59
3960;BME280;1994;48.640;8.894;2023-07-20T01:43:49;96074.47;;;18.66;57.22
3960;BME280;1994;48.640;8.894;2023-07-20T01:46:14;96073.69;;;18.65;57.05
3960;BME280;1994;48.640;8.894;2023-07-20T01:48:41;96066.88;;;18.64;56.93
3960;BME280;1994;48.640;8.894;2023-07-20T01:51:06;96070.38;;;18.60;56.98
3960;BME280;1994;48.640;8.894;2023-07-20T01:53:32;96068.25;;;18.62;56.90
3960;BME280;1994;48.640;8.894;2023-07-20T01:55:58;96073.06;;;18.55;57.04
3960;BME280;1994;48.640;8.894;2023-07-20T01:58:24;96073.41;;;18.48;57.60
3960;BME280;1994;48.640;8.894;2023-07-20T02:00:50;96076.03;;;18.48;57.72
3960;BME280;1994;48.640;8.894;2023-07-20T02:03:16;96066.97;;;18.41;57.58
3960;BME280;1994;48.640;8.894;2023-07-20T02:05:45;96070.44;;;18.36;57.92
3960;BME280;1994;48.640;8.894;2023-07-20T02:08:11;96068.69;;;18.32;57.86
3960;BME280;1994;48.640;8.894;2023-07-20T02:10:37;96076.75;;;18.35;58.50
3960;BME280;1994;48.640;8.894;2023-07-20T02:13:03;96069.19;;;18.29;58.55
3960;BME280;1994;48.640;8.894;2023-07-20T02:15:29;96067.22;;;18.21;58.74
3960;BME280;1994;48.640;8.894;2023-07-20T02:17:55;96061.75;;;18.17;58.51
3960;BME280;1994;48.640;8.894;2023-07-20T02:20:20;96066.69;;;18.19;58.65
3960;BME280;1994;48.640;8.894;2023-07-20T02:22:46;96059.41;;;18.16;58.95
3960;BME280;1994;48.640;8.894;2023-07-20T02:25:13;96070.75;;;18.11;59.14
3960;BME280;1994;48.640;8.894;2023-07-20T02:27:39;96072.59;;;18.11;58.99
3960;BME280;1994;48.640;8.894;2023-07-20T02:30:05;96072.38;;;18.07;59.42
3960;BME280;1994;48.640;8.894;2023-07-20T02:32:33;96066.91;;;18.04;59.35
3960;BME280;1994;48.640;8.894;2023-07-20T02:34:59;96070.59;;;18.03;59.61
3960;BME280;1994;48.640;8.894;2023-07-20T02:37:25;96078.94;;;18.05;59.70
3960;BME280;1994;48.640;8.894;2023-07-20T02:39:51;96084.75;;;18.02;59.67
3960;BME280;1994;48.640;8.894;2023-07-20T02:42:16;96087.56;;;18.05;59.54
3960;BME280;1994;48.640;8.894;2023-07-20T02:44:43;96086.31;;;18.03;60.10
3960;BME280;1994;48.640;8.894;2023-07-20T02:47:08;96088.44;;;18.01;60.30
3960;BME280;1994;48.640;8.894;2023-07-20T02:49:35;96090.13;;;17.92;60.54
3960;BME280;1994;48.640;8.894;2023-07-20T02:52:00;96090.13;;;17.92;60.60
3960;BME280;1994;48.640;8.894;2023-07-20T02:54:26;96082.53;;;17.90;60.61
3960;BME280;1994;48.640;8.894;2023-07-20T02:56:52;96088.31;;;17.87;60.55
3960;BME280;1994;48.640;8.894;2023-07-20T02:59:18;96080.75;;;17.86;60.70
3960;BME280;1994;48.640;8.894;2023-07-20T03:01:44;96085.44;;;17.89;61.06
3960;BME280;1994;48.640;8.894;2023-07-20T03:04:10;96078.16;;;17.81;61.07
3960;BME280;1994;48.640;8.894;2023-07-20T03:06:36;96080.19;;;17.89;60.73
3960;BME280;1994;48.640;8.894;2023-07-20T03:09:03;96087.31;;;17.83;61.27
3960;BME280;1994;48.640;8.894;2023-07-20T03:11:29;96087.03;;;17.85;61.06
3960;BME280;1994;48.640;8.894;2023-07-20T03:13:55;96090.22;;;17.82;61.29
3960;BME280;1994;48.640;8.894;2023-07-20T03:16:24;96085.59;;;17.74;61.70
3960;BME280;1994;48.640;8.894;2023-07-20T03:18:50;96081.91;;;17.75;61.51
3960;BME280;1994;48.640;8.894;2023-07-20T03:21:16;96085.66;;;17.69;61.72
3960;BME280;1994;48.640;8.894;2023-07-20T03:23:42;96087.94;;;17.75;61.86
3960;BME280;1994;48.640;8.894;2023-07-20T03:26:08;96082.53;;;17.67;62.51
3960;BME280;1994;48.640;8.894;2023-07-20T03:28:36;96086.31;;;17.56;63.54
3960;BME280;1994;48.640;8.894;2023-07-20T03:31:02;96083.56;;;17.42;63.83
3960;BME280;1994;48.640;8.894;2023-07-20T03:33:29;96082.78;;;17.42;63.52
3960;BME280;1994;48.640;8.894;2023-07-20T03:35:55;96081.81;;;17.33;64.04
3960;BME280;1994;48.640;8.894;2023-07-20T03:38:22;96080.56;;;17.25;64.55
3960;BME280;1994;48.640;8.894;2023-07-20T03:40:59;96091.78;;;17.26;64.25
3960;BME280;1994;48.640;8.894;2023-07-20T03:43:26;96092.91;;;17.20;64.67
3960;BME280;1994;48.640;8.894;2023-07-20T03:45:53;96095.50;;;17.20;64.67
3960;BME280;1994;48.640;8.894;2023-07-20T03:48:22;96087.66;;;17.20;64.84
3960;BME280;1994;48.640;8.894;2023-07-20T03:50:50;96099.16;;;17.24;64.66
3960;BME280;1994;48.640;8.894;2023-07-20T03:53:17;96097.56;;;17.28;64.77
3960;BME280;1994;48.640;8.894;2023-07-20T03:55:51;96099.84;;;17.34;64.63
3960;BME280;1994;48.640;8.894;2023-07-20T03:58:18;96099.56;;;17.36;64.67
3960;BME280;1994;48.640;8.894;2023-07-20T04:00:51;96098.50;;;17.42;64.25
3960;BME280;1994;48.640;8.894;2023-07-20T04:03:18;96095.25;;;17.55;64.20
3960;BME280;1994;48.640;8.894;2023-07-20T04:05:45;96097.41;;;17.71;63.50
3960;BME280;1994;48.640;8.894;2023-07-20T04:08:11;96104.66;;;17.79;63.04
3960;BME280;1994;48.640;8.894;2023-07-20T04:10:38;96107.19;;;17.89;63.08
3960;BME280;1994;48.640;8.894;2023-07-20T04:13:04;96111.09;;;17.92;63.44
3960;BME280;1994;48.640;8.894;2023-07-20T04:15:30;96112.13;;;17.91;63.08
3960;BME280;1994;48.640;8.894;2023-07-20T04:17:57;96098.53;;;17.89;63.17
3960;BME280;1994;48.640;8.894;2023-07-20T04:20:26;96103.72;;;17.94;63.01
3960;BME280;1994;48.640;8.894;2023-07-20T04:22:51;96109.34;;;18.06;62.54
3960;BME280;1994;48.640;8.894;2023-07-20T04:25:20;96106.72;;;18.06;62.22
3960;BME280;1994;48.640;8.894;2023-07-20T04:27:46;96114.97;;;18.18;62.37
3960;BME280;1994;48.640;8.894;2023-07-20T04:30:12;96118.09;;;18.20;62.54
3960;BME280;1994;48.640;8.894;2023-07-20T04:32:39;96116.19;;;18.25;62.42
3960;BME280;1994;48.640;8.894;2023-07-20T04:38:16;96115.31;;;18.30;62.20
3960;BME280;1994;48.640;8.894;2023-07-20T04:40:48;96119.88;;;18.24;62.73
3960;BME280;1994;48.640;8.894;2023-07-20T04:43:15;96112.22;;;18.28;62.71
3960;BME280;1994;48.640;8.894;2023-07-20T04:45:41;96110.84;;;18.35;62.36
3960;BME280;1994;48.640;8.894;2023-07-20T04:48:10;96108.91;;;18.41;62.30
3960;BME280;1994;48.640;8.894;2023-07-20T04:50:44;96106.03;;;18.42;62.48
3960;BME280;1994;48.640;8.894;2023-07-20T04:53:13;96111.72;;;18.49;62.12
3960;BME280;1994;48.640;8.894;2023-07-20T04:55:40;96113.97;;;18.56;61.90
3960;BME280;1994;48.640;8.894;2023-07-20T04:58:07;96116.59;;;18.56;62.39
3960;BME280;1994;48.640;8.894;2023-07-20T05:00:33;96109.81;;;18.73;61.62
3960;BME280;1994;48.640;8.894;2023-07-20T05:02:59;96112.63;;;18.77;61.76
3960;BME280;1994;48.640;8.894;2023-07-20T05:05:25;96114.91;;;18.83;61.58
3960;BME280;1994;48.640;8.894;2023-07-20T05:07:51;96119.03;;;18.89;61.71
3960;BME280;1994;48.640;8.894;2023-07-20T05:10:17;96111.56;;;18.96;61.67
3960;BME280;1994;48.640;8.894;2023-07-20T05:12:43;96122.69;;;19.07;61.32
3960;BME280;1994;48.640;8.894;2023-07-20T05:15:09;96123.75;;;19.06;61.13
3960;BME280;1994;48.640;8.894;2023-07-20T05:17:35;96118.47;;;19.06;61.60
3960;BME280;1994;48.640;8.894;2023-07-20T05:20:01;96115.22;;;19.14;61.04
3960;BME280;1994;48.640;8.894;2023-07-20T05:22:27;96113.22;;;19.24;60.54
3960;BME280;1994;48.640;8.894;2023-07-20T05:24:53;96110.81;;;19.28;60.53
3960;BME280;1994;48.640;8.894;2023-07-20T05:27:19;96111.72;;;19.37;60.73
3960;BME280;1994;48.640;8.894;2023-07-20T05:29:45;96111.00;;;19.50;59.70
3960;BME280;1994;48.640;8.894;2023-07-20T05:32:13;96111.94;;;19.54;59.88
3960;BME280;1994;48.640;8.894;2023-07-20T05:34:39;96110.03;;;19.59;60.24
3960;BME280;1994;48.640;8.894;2023-07-20T05:37:05;96109.06;;;19.69;59.95
3960;BME280;1994;48.640;8.894;2023-07-20T05:39:32;96108.88;;;19.79;59.49
3960;BME280;1994;48.640;8.894;2023-07-20T05:41:58;96109.25;;;19.86;59.03
3960;BME280;1994;48.640;8.894;2023-07-20T05:44:24;96111.81;;;19.91;59.01
3960;BME280;1994;48.640;8.894;2023-07-20T05:46:50;96104.63;;;19.96;58.26
3960;BME280;1994;48.640;8.894;2023-07-20T05:49:16;96109.91;;;20.10;58.06
3960;BME280;1994;48.640;8.894;2023-07-20T05:51:41;96107.75;;;20.12;57.76
3960;BME280;1994;48.640;8.894;2023-07-20T05:54:07;96109.69;;;20.20;57.14
3960;BME280;1994;48.640;8.894;2023-07-20T05:56:33;96102.28;;;20.22;57.35
3960;BME280;1994;48.640;8.894;2023-07-20T05:58:59;96110.06;;;20.27;56.97
3960;BME280;1994;48.640;8.894;2023-07-20T06:01:25;96109.84;;;20.37;57.27
3960;BME280;1994;48.640;8.894;2023-07-20T06:03:53;96123.88;;;20.46;57.37
3960;BME280;1994;48.640;8.894;2023-07-20T06:06:19;96118.13;;;20.44;56.86
3960;BME280;1994;48.640;8.894;2023-07-20T06:08:45;96121.13;;;20.51;57.12
3960;BME280;1994;48.640;8.894;2023-07-20T06:11:11;96122.31;;;20.45;56.65
3960;BME280;1994;48.640;8.894;2023-07-20T06:13:37;96123.47;;;20.52;56.92
3960;BME280;1994;48.640;8.894;2023-07-20T06:16:03;96129.50;;;20.53;56.85
3960;BME280;1994;48.640;8.894;2023-07-20T06:18:29;96133.63;;;20.59;56.26
3960;BME280;1994;48.640;8.894;2023-07-20T06:20:56;96129.50;;;20.53;57.20
3960;BME280;1994;48.640;8.894;2023-07-20T06:23:22;96125.59;;;20.64;56.84
3960;BME280;1994;48.640;8.894;2023-07-20T06:25:48;96119.97;;;20.57;56.44
3960;BME280;1994;48.640;8.894;2023-07-20T06:28:14;96124.78;;;20.28;57.62
3960;BME280;1994;48.640;8.894;2023-07-20T06:30:40;96113.75;;;20.26;56.95
3960;BME280;1994;48.640;8.894;2023-07-20T06:33:06;96114.25;;;20.01;57.84
3960;BME280;1994;48.640;8.894;2023-07-20T06:35:34;96114.72;;;20.03;57.68
3960;BME280;1994;48.640;8.894;2023-07-20T06:38:00;96115.16;;;20.10;57.15
3960;BME280;1994;48.640;8.894;2023-07-20T06:40:26;96117.56;;;20.20;57.03
3960;BME280;1994;48.640;8.894;2023-07-20T06:42:52;96115.63;;;20.12;56.79
3960;BME280;1994;48.640;8.894;2023-07-20T06:45:18;96118.66;;;20.19;57.35
3960;BME280;1994;48.640;8.894;2023-07-20T06:47:43;96111.47;;;20.60;57.36
3960;BME280;1994;48.640;8.894;2023-07-20T06:50:10;96119.97;;;20.43;56.44
3960;BME280;1994;48.640;8.894;2023-07-20T06:52:36;96117.53;;;20.47;56.45
3960;BME280;1994;48.640;8.894;2023-07-20T06:55:03;96115.66;;;20.61;56.82
3960;BME280;1994;48.640;8.894;2023-07-20T06:57:29;96112.03;;;21.06;55.94
3960;BME280;1994;48.640;8.894;2023-07-20T06:59:55;96112.66;;;21.03;54.99
3960;BME280;1994;48.640;8.894;2023-07-20T07:02:20;96113.22;;;21.44;54.86
3960;BME280;1994;48.640;8.894;2023-07-20T07:04:46;96118.78;;;21.20;54.89
3960;BME280;1994;48.640;8.894;2023-07-20T07:07:15;96112.72;;;21.64;54.00
3960;BME280;1994;48.640;8.894;2023-07-20T07:09:41;96114.69;;;21.58;53.97
3960;BME280;1994;48.640;8.894;2023-07-20T07:12:08;96100.25;;;21.56;53.79
3960;BME280;1994;48.640;8.894;2023-07-20T07:14:34;96110.31;;;21.76;53.04
3960;BME280;1994;48.640;8.894;2023-07-20T07:17:00;96112.28;;;22.01;53.02
3960;BME280;1994;48.640;8.894;2023-07-20T07:19:26;96107.78;;;22.01;52.19
3960;BME280;1994;48.640;8.894;2023-07-20T07:21:52;96103.94;;;22.16;53.27
3960;BME280;1994;48.640;8.894;2023-07-20T07:24:18;96115.75;;;22.27;53.04
3960;BME280;1994;48.640;8.894;2023-07-20T07:26:44;96105.53;;;21.86;52.45
3960;BME280;1994;48.640;8.894;2023-07-20T07:29:09;96109.97;;;21.69;53.22
3960;BME280;1994;48.640;8.894;2023-07-20T07:31:36;96110.25;;;21.98;52.31
3960;BME280;1994;48.640;8.894;2023-07-20T07:34:02;96112.16;;;22.06;52.34
3960;BME280;1994;48.640;8.894;2023-07-20T07:36:28;96106.06;;;21.97;52.32
3960;BME280;1994;48.640;8.894;2023-07-20T07:38:54;96108.22;;;21.95;52.34
3960;BME280;1994;48.640;8.894;2023-07-20T07:41:20;96112.06;;;22.28;51.58
3960;BME280;1994;48.640;8.894;2023-07-20T07:43:46;96101.03;;;22.34;51.57
3960;BME280;1994;48.640;8.894;2023-07-20T07:46:12;96102.34;;;22.45;51.74
3960;BME280;1994;48.640;8.894;2023-07-20T07:48:39;96108.56;;;22.58;50.91
3960;BME280;1994;48.640;8.894;2023-07-20T07:51:05;96103.91;;;22.55;50.62
3960;BME280;1994;48.640;8.894;2023-07-20T07:53:31;96108.41;;;22.63;49.81
3960;BME280;1994;48.640;8.894;2023-07-20T07:55:58;96104.09;;;22.67;49.73
3960;BME280;1994;48.640;8.894;2023-07-20T07:58:24;96094.13;;;22.81;49.88
3960;BME280;1994;48.640;8.894;2023-07-20T08:00:49;96094.56;;;22.57;49.55
3960;BME280;1994;48.640;8.894;2023-07-20T08:03:15;96094.91;;;22.81;48.44
3960;BME280;1994;48.640;8.894;2023-07-20T08:05:41;96091.59;;;22.42;48.94
3960;BME280;1994;48.640;8.894;2023-07-20T08:08:07;96101.59;;;22.79;48.21
3960;BME280;1994;48.640;8.894;2023-07-20T08:10:34;96098.25;;;22.39;49.19
3960;BME280;1994;48.640;8.894;2023-07-20T08:13:00;96101.00;;;22.17;50.12
3960;BME280;1994;48.640;8.894;2023-07-20T08:15:26;96094.75;;;22.61;50.87
3960;BME280;1994;48.640;8.894;2023-07-20T08:17:52;96096.94;;;22.93;48.63
3960;BME280;1994;48.640;8.894;2023-07-20T08:20:18;96091.31;;;23.03;48.36
3960;BME280;1994;48.640;8.894;2023-07-20T08:22:44;96089.78;;;22.68;48.51
3960;BME280;1994;48.640;8.894;2023-07-20T08:25:10;96088.22;;;22.50;49.03
3960;BME280;1994;48.640;8.894;2023-07-20T08:27:37;96088.25;;;22.84;49.70
3960;BME280;1994;48.640;8.894;2023-07-20T08:30:03;96095.22;;;23.39;48.53
3960;BME280;1994;48.640;8.894;2023-07-20T08:32:30;96094.28;;;23.35;47.26
3960;BME280;1994;48.640;8.894;2023-07-20T08:34:55;96090.41;;;23.33;45.57
3960;BME280;1994;48.640;8.894;2023-07-20T08:37:22;96103.00;;;23.19;45.47
3960;BME280;1994;48.640;8.894;2023-07-20T08:39:48;96099.41;;;23.15;45.50
3960;BME280;1994;48.640;8.894;2023-07-20T08:42:15;96096.00;;;23.14;46.19
3960;BME280;1994;48.640;8.894;2023-07-20T08:44:42;96099.41;;;23.15;46.59
3960;BME280;1994;48.640;8.894;2023-07-20T08:47:10;96104.69;;;23.06;46.54
3960;BME280;1994;48.640;8.894;2023-07-20T08:49:39;96096.47;;;22.82;46.55
3960;BME280;1994;48.640;8.894;2023-07-20T08:52:05;96103.47;;;23.04;45.89
3960;BME280;1994;48.640;8.894;2023-07-20T08:54:31;96098.56;;;23.65;44.29
3960;BME280;1994;48.640;8.894;2023-07-20T08:57:02;96094.16;;;24.24;43.34
3960;BME280;1994;48.640;8.894;2023-07-20T08:59:29;96090.84;;;24.97;41.86
3960;BME280;1994;48.640;8.894;2023-07-20T09:01:57;96091.47;;;25.35;39.78
3960;BME280;1994;48.640;8.894;2023-07-20T09:04:24;96087.31;;;25.58;40.14
3960;BME280;1994;48.640;8.894;2023-07-20T09:06:50;96084.88;;;25.00;39.20
3960;BME280;1994;48.640;8.894;2023-07-20T09:09:17;96085.03;;;24.83;40.48
3960;BME280;1994;48.640;8.894;2023-07-20T09:11:47;96092.47;;;24.40;40.70
3960;BME280;1994;48.640;8.894;2023-07-20T09:14:13;96096.50;;;24.46;41.33
3960;BME280;1994;48.640;8.894;2023-07-20T09:16:53;96094.13;;;24.53;41.33
3960;BME280;1994;48.640;8.894;2023-07-20T09:19:20;96092.09;;;24.50;41.12
3960;BME280;1994;48.640;8.894;2023-07-20T09:21:48;96089.75;;;24.28;41.79
3960;BME280;1994;48.640;8.894;2023-07-20T09:24:15;96094.63;;;24.17;42.30
3960;BME280;1994;48.640;8.894;2023-07-20T09:26:42;96092.69;;;24.26;40.23
3960;BME280;1994;48.640;8.894;2023-07-20T09:29:09;96088.44;;;25.04;40.33
3960;BME280;1994;48.640;8.894;2023-07-20T09:31:36;96085.19;;;25.96;38.17
3960;BME280;1994;48.640;8.894;2023-07-20T09:34:02;96086.81;;;26.48;35.12
3960;BME280;1994;48.640;8.894;2023-07-20T09:36:29;96081.63;;;25.92;35.56
3960;BME280;1994;48.640;8.894;2023-07-20T09:38:55;96084.66;;;25.58;36.71
3960;BME280;1994;48.640;8.894;2023-07-20T09:41:21;96085.56;;;24.97;37.46
3960;BME280;1994;48.640;8.894;2023-07-20T09:43:47;96075.56;;;25.35;38.80
3960;BME280;1994;48.640;8.894;2023-07-20T09:46:13;96078.91;;;26.12;36.61
3960;BME280;1994;48.640;8.894;2023-07-20T09:48:39;96079.88;;;26.56;34.94
3960;BME280;1994;48.640;8.894;2023-07-20T09:51:07;96081.19;;;26.14;35.78
3960;BME280;1994;48.640;8.894;2023-07-20T09:53:33;96076.78;;;26.06;35.71
3960;BME280;1994;48.640;8.894;2023-07-20T09:56:00;96079.72;;;25.68;36.38
3960;BME280;1994;48.640;8.894;2023-07-20T09:58:26;96072.72;;;25.52;36.62
3960;BME280;1994;48.640;8.894;2023-07-20T10:00:56;96077.03;;;25.56;35.77
3960;BME280;1994;48.640;8.894;2023-07-20T10:03:29;96072.91;;;25.91;35.50
3960;BME280;1994;48.640;8.894;2023-07-20T10:06:24;96068.81;;;25.82;33.54
3960;BME280;1994;48.640;8.894;2023-07-20T10:08:53;96069.94;;;26.17;34.18
3960;BME280;1994;48.640;8.894;2023-07-20T10:11:22;96065.06;;;26.31;35.24
3960;BME280;1994;48.640;8.894;2023-07-20T10:13:53;96069.44;;;26.51;33.69
3960;BME280;1994;48.640;8.894;2023-07-20T10:16:34;96062.75;;;26.81;33.33
3960;BME280;1994;48.640;8.894;2023-07-20T10:19:10;96062.06;;;26.56;34.91
3960;BME280;1994;48.640;8.894;2023-07-20T10:21:42;96059.25;;;26.41;35.25
3960;BME280;1994;48.640;8.894;2023-07-20T10:24:09;96058.38;;;26.61;35.27
3960;BME280;1994;48.640;8.894;2023-07-20T10:26:35;96059.19;;;26.89;34.16
3960;BME280;1994;48.640;8.894;2023-07-20T10:29:01;96046.78;;;27.08;32.36
3960;BME280;1994;48.640;8.894;2023-07-20T10:31:29;96042.75;;;26.99;32.60
3960;BME280;1994;48.640;8.894;2023-07-20T10:33:57;96042.25;;;27.09;30.79
3960;BME280;1994;48.640;8.894;2023-07-20T10:36:27;96042.94;;;27.18;31.67
3960;BME280;1994;48.640;8.894;2023-07-20T10:38:55;96043.78;;;27.22;32.48
3960;BME280;1994;48.640;8.894;2023-07-20T10:41:42;96054.78;;;26.81;33.21
3960;BME280;1994;48.640;8.894;2023-07-20T10:44:08;96045.31;;;26.56;33.83
3960;BME280;1994;48.640;8.894;2023-07-20T10:46:41;96038.09;;;26.96;33.58
3960;BME280;1994;48.640;8.894;2023-07-20T10:49:09;96039.56;;;27.21;32.15
3960;BME280;1994;48.640;8.894;2023-07-20T10:51:49;96032.06;;;27.54;31.05
3960;BME280;1994;48.640;8.894;2023-07-20T10:56:47;96021.50;;;27.26;31.19
3960;BME280;1994;48.640;8.894;2023-07-20T10:59:37;96030.66;;;26.74;31.91
3960;BME280;1994;48.640;8.894;2023-07-20T11:02:07;96014.69;;;26.74;32.44
3960;BME280;1994;48.640;8.894;2023-07-20T11:04:45;96030.38;;;26.91;33.00
3960;BME280;1994;48.640;8.894;2023-07-20T11:07:35;96031.22;;;26.95;33.39
3960;BME280;1994;48.640;8.894;2023-07-20T11:10:13;96032.00;;;27.23;31.43
3960;BME280;1994;48.640;8.894;2023-07-20T11:13:23;96024.94;;;26.87;32.03
3960;BME280;1994;48.640;8.894;2023-07-20T11:16:02;96023.78;;;27.28;32.31
3960;BME280;1994;48.640;8.894;2023-07-20T11:18:30;96026.16;;;27.91;32.42
3960;BME280;1994;48.640;8.894;2023-07-20T11:20:57;96028.41;;;28.24;32.51
3960;BME280;1994;48.640;8.894;2023-07-20T11:23:23;96028.44;;;28.58;30.17
3960;BME280;1994;48.640;8.894;2023-07-20T11:25:50;96024.56;;;28.56;30.39
3960;BME280;1994;48.640;8.894;2023-07-20T11:28:16;96013.31;;;28.62;29.91
3960;BME280;1994;48.640;8.894;2023-07-20T11:30:41;96022.19;;;28.51;30.74
3960;BME280;1994;48.640;8.894;2023-07-20T11:33:11;96015.81;;;27.74;30.98
3960;BME280;1994;48.640;8.894;2023-07-20T11:35:46;96008.63;;;28.06;30.46
3960;BME280;1994;48.640;8.894;2023-07-20T11:38:13;96008.97;;;28.04;32.16
3960;BME280;1994;48.640;8.894;2023-07-20T11:40:44;96015.16;;;28.43;30.10
3960;BME280;1994;48.640;8.894;2023-07-20T11:43:14;96017.91;;;28.31;28.91
3960;BME280;1994;48.640;8.894;2023-07-20T11:45:40;96006.47;;;27.34;30.55
3960;BME280;1994;48.640;8.894;2023-07-20T11:48:06;95999.59;;;27.33;31.04
3960;BME280;1994;48.640;8.894;2023-07-20T11:50:32;96001.59;;;27.67;31.64
3960;BME280;1994;48.640;8.894;2023-07-20T11:52:57;95997.47;;;27.54;31.00
3960;BME280;1994;48.640;8.894;2023-07-20T11:55:23;96007.66;;;28.14;30.97
3960;BME280;1994;48.640;8.894;2023-07-20T11:58:06;95996.00;;;27.41;30.35
3960;BME280;1994;48.640;8.894;2023-07-20T12:00:33;95995.16;;;27.37;31.21
3960;BME280;1994;48.640;8.894;2023-07-20T12:03:00;95991.41;;;27.10;31.49
3960;BME280;1994;48.640;8.894;2023-07-20T12:05:26;95992.75;;;27.32;30.79
3960;BME280;1994;48.640;8.894;2023-07-20T12:07:52;95986.84;;;27.11;31.53
3960;BME280;1994;48.640;8.894;2023-07-20T12:10:28;95987.50;;;27.97;32.16
3960;BME280;1994;48.640;8.894;2023-07-20T12:12:54;95985.13;;;28.27;30.00
3960;BME280;1994;48.640;8.894;2023-07-20T12:15:25;95989.88;;;28.37;30.29
3960;BME280;1994;48.640;8.894;2023-07-20T12:18:00;95975.81;;;28.21;30.09
3960;BME280;1994;48.640;8.894;2023-07-20T12:20:31;95980.16;;;28.44;29.15
3960;BME280;1994;48.640;8.894;2023-07-20T12:23:03;95974.34;;;28.39;29.26
3960;BME280;1994;48.640;8.894;2023-07-20T12:25:45;95983.34;;;28.50;28.77
3960;BME280;1994;48.640;8.894;2023-07-20T12:28:18;95981.91;;;28.75;30.30
3960;BME280;1994;48.640;8.894;2023-07-20T12:30:46;95974.09;;;28.44;28.94
3960;BME280;1994;48.640;8.894;2023-07-20T12:33:13;95973.09;;;28.71;29.03
3960;BME280;1994;48.640;8.894;2023-07-20T12:35:41;95968.59;;;28.75;30.44
3960;BME280;1994;48.640;8.894;2023-07-20T12:38:08;95967.59;;;29.02;28.84
3960;BME280;1994;48.640;8.894;2023-07-20T12:40:34;95964.91;;;29.21;28.27
3960;BME280;1994;48.640;8.894;2023-07-20T12:43:01;95950.00;;;28.59;27.74
3960;BME280;1994;48.640;8.894;2023-07-20T12:45:27;95952.31;;;28.99;27.71
3960;BME280;1994;48.640;8.894;2023-07-20T12:47:53;95949.91;;;29.58;27.14
3960;BME280;1994;48.640;8.894;2023-07-20T12:50:19;95953.38;;;28.75;27.64
3960;BME280;1994;48.640;8.894;2023-07-20T12:52:44;95945.72;;;28.93;28.70
3960;BME280;1994;48.640;8.894;2023-07-20T12:55:10;95940.94;;;29.47;28.77
3960;BME280;1994;48.640;8.894;2023-07-20T12:57:37;95951.19;;;29.45;27.38
3960;BME280;1994;48.640;8.894;2023-07-20T13:00:10;95949.56;;;28.95;28.33
3960;BME280;1994;48.640;8.894;2023-07-20T13:02:38;95948.09;;;28.79;28.99
3960;BME280;1994;48.640;8.894;2023-07-20T13:05:04;95941.22;;;28.97;27.97
3960;BME280;1994;48.640;8.894;2023-07-20T13:07:35;95943.63;;;29.24;27.25
3960;BME280;1994;48.640;8.894;2023-07-20T13:10:03;95941.34;;;29.26;27.74
3960;BME280;1994;48.640;8.894;2023-07-20T13:12:32;95934.06;;;29.01;28.21
3960;BME280;1994;48.640;8.894;2023-07-20T13:14:58;95938.97;;;28.80;28.31
3960;BME280;1994;48.640;8.894;2023-07-20T13:17:28;95937.25;;;27.96;29.31
3960;BME280;1994;48.640;8.894;2023-07-20T13:19:55;95935.84;;;28.02;29.23
3960;BME280;1994;48.640;8.894;2023-07-20T13:22:21;95931.53;;;28.13;29.13
3960;BME280;1994;48.640;8.894;2023-07-20T13:24:48;95923.97;;;27.65;29.30
3960;BME280;1994;48.640;8.894;2023-07-20T13:27:16;95928.03;;;28.28;29.32
3960;BME280;1994;48.640;8.894;2023-07-20T13:29:42;95916.66;;;28.31;28.86
3960;BME280;1994;48.640;8.894;2023-07-20T13:32:09;95916.34;;;29.12;27.87
3960;BME280;1994;48.640;8.894;2023-07-20T13:34:35;95916.69;;;29.55;27.49
3960;BME280;1994;48.640;8.894;2023-07-20T13:37:01;95921.88;;;29.97;27.23